Time,TemperatureF,DewpointF,PressureIn,WindDirection,WindDirectionDegrees,WindSpeedMPH,WindSpeedGustMPH,Humidity,HourlyPrecipIn,Conditions,Clouds,dailyrainin,SoftwareType,DateUTC
2013-09-10 00:23:00,80.0,69.0,29.93,SSW,202,3.0,6.0,70,0.00,,,0.00,,2013-09-10 05:23:00,
2013-09-10 00:34:00,80.0,69.0,29.93,SSW,202,3.0,6.0,70,0.00,,,0.00,,2013-09-10 05:34:00,
2013-09-10 00:53:00,79.0,69.0,29.93,South,171,3.0,6.0,72,0.00,,,0.00,,2013-09-10 05:53:00,
2013-09-10 01:22:00,78.0,69.0,29.94,SSW,212,2.0,5.0,73,0.00,,,0.00,,2013-09-10 06:22:00,
2013-09-10 01:52:00,78.0,69.0,29.94,SSW,201,2.0,7.0,73,0.00,,,0.00,,2013-09-10 06:52:00,
2013-09-10 02:12:00,77.0,69.0,29.94,SSE,166,0.0,3.0,76,0.00,,,0.00,,2013-09-10 07:12:00,
2013-09-10 02:22:00,77.0,69.0,29.94,South,169,1.0,2.0,77,0.00,,,0.00,,2013-09-10 07:22:00,
2013-09-10 02:52:00,76.0,69.0,29.95,South,180,0.0,0.0,78,0.00,,,0.00,,2013-09-10 07:52:00,
2013-09-10 03:12:00,76.0,69.0,29.95,SSE,165,0.0,1.0,79,0.00,,,0.00,,2013-09-10 08:12:00,
2013-09-10 03:22:00,76.0,69.0,29.95,SSE,165,0.0,1.0,79,0.00,,,0.00,,2013-09-10 08:22:00,
2013-09-10 03:32:00,76.0,69.0,29.95,SSE,165,0.0,1.0,79,0.00,,,0.00,,2013-09-10 08:32:00,
2013-09-10 03:52:00,76.0,69.0,29.96,South,169,0.0,0.0,80,0.00,,,0.00,,2013-09-10 08:52:00,
2013-09-10 04:21:00,75.0,69.0,29.96,South,173,0.0,2.0,81,0.00,,,0.00,,2013-09-10 09:21:00,
2013-09-10 04:54:00,75.0,69.0,29.96,South,173,0.0,0.0,81,0.00,,,0.00,,2013-09-10 09:54:00,
2013-09-10 05:23:00,74.0,68.0,29.97,South,173,0.0,0.0,81,0.00,,,0.00,,2013-09-10 10:23:00,
2013-09-10 05:53:00,74.0,67.0,29.98,East,94,0.0,0.0,80,0.00,,,0.00,,2013-09-10 10:53:00,
2013-09-10 06:12:00,73.0,65.0,29.98,East,94,0.0,0.0,77,0.00,,,0.00,,2013-09-10 11:12:00,
2013-09-10 06:22:00,73.0,65.0,29.98,East,94,0.0,0.0,77,0.00,,,0.00,,2013-09-10 11:22:00,
2013-09-10 06:52:00,73.0,66.0,29.98,East,94,0.0,0.0,78,0.00,,,0.00,,2013-09-10 11:52:00,
2013-09-10 07:22:00,73.0,65.0,29.99,SE,124,0.0,0.0,77,0.00,,,0.00,,2013-09-10 12:22:00,
2013-09-10 07:52:00,72.0,64.0,30.00,East,98,0.0,0.0,76,0.00,,,0.00,,2013-09-10 12:52:00,
2013-09-10 08:11:00,73.0,65.0,30.01,East,89,0.0,1.0,76,0.00,,,0.00,,2013-09-10 13:11:00,
2013-09-10 08:21:00,73.0,65.0,30.01,East,89,0.0,1.0,76,0.00,,,0.00,,2013-09-10 13:21:00,
2013-09-10 08:52:00,76.0,70.0,30.02,ESE,109,5.0,8.0,81,0.00,,,0.00,,2013-09-10 13:52:00,
2013-09-10 09:21:00,78.0,71.0,30.03,East,97,6.0,10.0,80,0.00,,,0.00,,2013-09-10 14:21:00,
2013-09-10 09:52:00,78.0,71.0,30.03,ESE,123,5.0,9.0,80,0.00,,,0.00,,2013-09-10 14:52:00,
2013-09-10 10:22:00,81.0,74.0,30.04,ESE,121,7.0,10.0,79,0.00,,,0.00,,2013-09-10 15:22:00,
2013-09-10 10:54:00,81.0,73.0,30.04,SE,133,6.0,13.0,78,0.00,,,0.00,,2013-09-10 15:54:00,
2013-09-10 11:23:00,84.0,73.0,30.05,ESE,105,7.0,12.0,70,0.00,,,0.00,,2013-09-10 16:23:00,
2013-09-10 11:53:00,85.0,70.0,30.05,SE,140,5.0,12.0,62,0.00,,,0.00,,2013-09-10 16:53:00,
2013-09-10 12:12:00,86.0,71.0,30.05,SE,144,5.0,13.0,61,0.00,,,0.00,,2013-09-10 17:12:00,
2013-09-10 12:23:00,86.0,71.0,30.05,SE,144,5.0,13.0,61,0.00,,,0.00,,2013-09-10 17:23:00,
2013-09-10 12:53:00,88.0,69.0,30.03,SE,143,4.0,12.0,53,0.00,,,0.00,,2013-09-10 17:53:00,
2013-09-10 13:21:00,89.0,68.0,30.02,SSE,165,9.0,15.0,50,0.00,,,0.00,,2013-09-10 18:21:00,
2013-09-10 13:52:00,91.0,65.0,30.02,SE,145,12.0,15.0,43,0.00,,,0.00,,2013-09-10 18:52:00,
2013-09-10 14:11:00,92.0,67.0,30.01,SE,130,8.0,15.0,44,0.00,,,0.00,,2013-09-10 19:11:00,
2013-09-10 14:22:00,92.0,67.0,30.01,SE,130,8.0,15.0,44,0.00,,,0.00,,2013-09-10 19:22:00,
2013-09-10 14:52:00,91.0,65.0,30.00,SE,135,9.0,16.0,43,0.00,,,0.00,,2013-09-10 19:52:00,
2013-09-10 15:12:00,93.0,62.0,29.99,SE,134,7.0,16.0,36,0.00,,,0.00,,2013-09-10 20:12:00,
2013-09-10 15:21:00,93.0,62.0,29.99,SE,134,7.0,16.0,36,0.00,,,0.00,,2013-09-10 20:21:00,
2013-09-10 15:52:00,92.0,60.0,29.98,SE,137,10.0,20.0,34,0.00,,,0.00,,2013-09-10 20:52:00,
2013-09-10 16:11:00,92.0,63.0,29.97,SSE,147,7.0,20.0,39,0.00,,,0.00,,2013-09-10 21:11:00,
2013-09-10 16:23:00,92.0,63.0,29.97,SSE,147,7.0,20.0,39,0.00,,,0.00,,2013-09-10 21:23:00,
2013-09-10 16:54:00,92.0,66.0,29.96,ESE,113,8.0,15.0,42,0.00,,,0.00,,2013-09-10 21:54:00,
2013-09-10 17:14:00,92.0,64.0,29.95,SE,135,9.0,12.0,40,0.00,,,0.00,,2013-09-10 22:14:00,
2013-09-10 17:24:00,92.0,64.0,29.95,SE,135,9.0,12.0,40,0.00,,,0.00,,2013-09-10 22:24:00,
2013-09-10 17:33:00,92.0,64.0,29.95,SE,135,9.0,12.0,40,0.00,,,0.00,,2013-09-10 22:33:00,
2013-09-10 17:54:00,90.0,56.0,29.95,SE,143,10.0,18.0,32,0.00,,,0.00,,2013-09-10 22:54:00,
2013-09-10 18:03:00,90.0,56.0,29.95,SE,143,10.0,18.0,32,0.00,,,0.00,,2013-09-10 23:03:00,
2013-09-10 18:13:00,90.0,56.0,29.95,SE,143,10.0,18.0,32,0.00,,,0.00,,2013-09-10 23:13:00,
2013-09-10 18:22:00,90.0,56.0,29.95,SE,143,10.0,18.0,32,0.00,,,0.00,,2013-09-10 23:22:00,
2013-09-10 18:42:00,89.0,61.0,29.96,SE,140,7.0,15.0,39,0.00,,,0.00,,2013-09-10 23:42:00,
2013-09-10 18:53:00,89.0,61.0,29.96,SE,140,7.0,15.0,39,0.00,,,0.00,,2013-09-10 23:53:00,
2013-09-10 19:11:00,88.0,62.0,29.96,ESE,122,7.0,15.0,42,0.00,,,0.00,,2013-09-11 00:11:00,
2013-09-10 19:22:00,88.0,62.0,29.96,ESE,122,7.0,15.0,42,0.00,,,0.00,,2013-09-11 00:22:00,
2013-09-10 19:32:00,88.0,62.0,29.96,ESE,122,7.0,15.0,42,0.00,,,0.00,,2013-09-11 00:32:00,
2013-09-10 19:42:00,88.0,62.0,29.96,ESE,122,7.0,15.0,42,0.00,,,0.00,,2013-09-11 00:42:00,
2013-09-10 19:52:00,87.0,61.0,29.96,ESE,107,6.0,12.0,42,0.00,,,0.00,,2013-09-11 00:52:00,
2013-09-10 20:11:00,86.0,60.0,29.96,ESE,113,4.0,9.0,42,0.00,,,0.00,,2013-09-11 01:11:00,
2013-09-10 20:21:00,84.0,60.0,29.96,ESE,117,2.0,3.0,45,0.00,,,0.00,,2013-09-11 01:21:00,
2013-09-10 20:32:00,84.0,60.0,29.96,ESE,117,2.0,3.0,45,0.00,,,0.00,,2013-09-11 01:32:00,
2013-09-10 20:42:00,84.0,60.0,29.96,ESE,117,2.0,3.0,45,0.00,,,0.00,,2013-09-11 01:42:00,
2013-09-10 20:53:00,83.0,61.0,29.97,ESE,103,0.0,0.0,48,0.00,,,0.00,,2013-09-11 01:53:00,
2013-09-10 21:22:00,82.0,62.0,29.98,ESE,103,0.0,0.0,51,0.00,,,0.00,,2013-09-11 02:22:00,
2013-09-10 21:32:00,82.0,62.0,29.98,ESE,103,0.0,0.0,51,0.00,,,0.00,,2013-09-11 02:32:00,
2013-09-10 21:52:00,81.0,62.0,29.98,ESE,103,0.0,0.0,53,0.00,,,0.00,,2013-09-11 02:52:00,
2013-09-10 22:22:00,80.0,61.0,29.99,East,88,0.0,0.0,53,0.00,,,0.00,,2013-09-11 03:22:00,
2013-09-10 22:54:00,79.0,60.0,30.00,East,88,0.0,0.0,53,0.00,,,0.00,,2013-09-11 03:54:00,
2013-09-10 23:14:00,79.0,62.0,30.00,ENE,78,0.0,0.0,57,0.00,,,0.00,,2013-09-11 04:14:00,
2013-09-10 23:24:00,78.0,62.0,30.01,East,83,0.0,3.0,58,0.00,,,0.00,,2013-09-11 04:24:00,
2013-09-10 23:54:00,78.0,62.0,30.01,SE,133,0.0,0.0,59,0.00,,,0.00,,2013-09-11 04:54:00,